SBCY/CGB METAR and TAF weather

Enter ICAO airport designator
Station Type Date Time Source
SBCY METAR 2020/03/29 12:00 UTC NOAA

SBCY 291200Z 32002KT CAVOK 27/23 Q1015


Station Type Date Time Source
SBCY Decoded METAR 2020/03/29 12:00 UTC NOAA

Cuiaba Aeroporto , Brazil (SBCY) 15-39S 056-06W 182M
Mar 29, 2020 - 08:00 AM EDT / 2020.03.29 1200 UTC
Wind: from the NW (320 degrees) at 2 MPH (2 KT):0
Visibility: greater than 7 mile(s):0
Temperature: 80 F (27 C)
Dew Point: 73 F (23 C)
Relative Humidity: 78%
Pressure (altimeter): 29.97 in. Hg (1015 hPa)
ob: SBCY 291200Z 32002KT CAVOK 27/23 Q1015
cycle: 12

Station Type Date Time Source
SBCY TAF 2020/03/29 12:03 UTC NOAA

TAF TAF SBCY 290900Z 2912/3012 32005KT 9999 SCT030 TX33/2917Z TN25/3010Z
BECMG 2915/2917 33015KT SCT025 FEW030TCU PROB30
TEMPO 2917/2922 4000 TSRA BKN025 FEW030CB
BECMG 2922/2924 05005KT FEW030
BECMG 3004/3006 32005KT
RMK PHI

Example: see airport list